createdAt,value
2018-11-20T00:03:20.027Z,21.5
2018-11-20T00:13:19.234Z,21.5
2018-11-20T00:23:18.434Z,21.5
2018-11-20T00:33:17.644Z,21.5
2018-11-20T00:43:16.850Z,21.5
2018-11-20T00:53:16.061Z,21.5
2018-11-20T01:03:15.265Z,21.4
2018-11-20T01:13:14.462Z,21.4
2018-11-20T01:23:13.668Z,21.4
2018-11-20T01:33:12.876Z,21.4
2018-11-20T01:43:12.080Z,21.4
2018-11-20T01:53:11.288Z,21.4
2018-11-20T02:03:10.494Z,21.4
2018-11-20T02:13:09.695Z,21.4
2018-11-20T02:23:08.900Z,21.4
2018-11-20T02:33:08.109Z,21.4
2018-11-20T02:43:07.308Z,21.4
2018-11-20T02:53:06.515Z,21.4
2018-11-20T03:03:05.718Z,21.4
2018-11-20T03:13:04.929Z,21.4
2018-11-20T03:23:04.135Z,21.4
2018-11-20T03:33:03.332Z,21.4
2018-11-20T03:43:02.542Z,21.4
2018-11-20T03:53:01.742Z,21.4
2018-11-20T04:03:00.955Z,21.6
2018-11-20T04:13:00.157Z,21.8
2018-11-20T04:22:59.363Z,22.1
2018-11-20T04:32:58.577Z,22.1
2018-11-20T04:42:57.778Z,22.1
2018-11-20T04:52:56.985Z,22
2018-11-20T05:02:56.191Z,22.3
2018-11-20T05:12:55.404Z,22.2
2018-11-20T05:22:54.615Z,22.1
2018-11-20T05:32:53.822Z,22.2
2018-11-20T05:42:53.030Z,22.3
2018-11-20T05:52:52.229Z,22.3
2018-11-20T06:02:51.442Z,22.4
2018-11-20T06:12:50.749Z,22.3
2018-11-20T06:22:49.853Z,22.3
2018-11-20T06:32:49.064Z,22.3
2018-11-20T06:42:48.261Z,22.2
2018-11-20T06:52:47.502Z,22.1
2018-11-20T07:02:46.684Z,22.1
2018-11-20T07:12:45.891Z,22.2
2018-11-20T07:22:45.205Z,22.3
2018-11-20T07:32:44.309Z,22.2
2018-11-20T07:42:43.519Z,22.3
2018-11-20T07:52:42.727Z,22.1
2018-11-20T08:02:41.928Z,22
2018-11-20T08:12:41.856Z,21.9
2018-11-20T08:22:41.055Z,21.8
2018-11-20T08:32:40.265Z,21.9
2018-11-20T08:42:39.473Z,22
2018-11-20T08:52:38.672Z,22.2
2018-11-20T09:02:38.037Z,22.1
2018-11-20T09:12:37.095Z,21.9
2018-11-20T09:22:36.320Z,21.9
2018-11-20T09:32:35.530Z,21.8
2018-11-20T09:42:34.734Z,21.8
2018-11-20T09:52:34.000Z,21.8
2018-11-20T10:02:33.145Z,21.8
2018-11-20T10:12:32.361Z,22.1
2018-11-20T10:22:31.566Z,22
2018-11-20T10:32:30.815Z,22.1
2018-11-20T10:42:29.977Z,22.3
2018-11-20T10:52:29.251Z,22.4
2018-11-20T11:02:28.393Z,22.5
2018-11-20T11:12:27.603Z,22.4
2018-11-20T11:22:26.804Z,22.3
2018-11-20T11:32:26.019Z,22.3
2018-11-20T11:42:25.231Z,22.3
2018-11-20T11:52:25.388Z,22.2
2018-11-20T12:12:22.850Z,22.3
2018-11-20T12:22:22.057Z,22.3
2018-11-20T12:32:21.267Z,22.2
2018-11-20T12:42:22.360Z,22.3
2018-11-20T12:52:19.683Z,22.3
2018-11-20T13:02:18.890Z,22.4
2018-11-20T13:12:18.101Z,22.4
2018-11-20T13:22:17.312Z,22.2
2018-11-20T13:32:16.508Z,22.3
2018-11-20T13:42:15.717Z,22.3
2018-11-20T13:52:14.933Z,22.2
2018-11-20T14:02:14.138Z,22.4
2018-11-20T14:12:13.343Z,22.4
2018-11-20T14:22:12.544Z,22.4
2018-11-20T14:32:11.761Z,22.3
2018-11-20T14:42:10.961Z,22.2
2018-11-20T14:52:10.166Z,22.1
2018-11-20T15:02:09.428Z,22.1
2018-11-20T15:12:08.578Z,22
2018-11-20T15:22:07.786Z,22.1
2018-11-20T15:32:07.006Z,22.2
2018-11-20T15:42:06.808Z,22.2
2018-11-20T15:52:05.406Z,22.3
2018-11-20T16:02:04.613Z,22.4
2018-11-20T16:12:03.825Z,22.4
2018-11-20T16:22:03.035Z,22.3
2018-11-20T16:32:02.240Z,22.3
2018-11-20T16:42:01.446Z,22.3
2018-11-20T16:52:00.657Z,22.4
2018-11-20T17:01:59.861Z,22.4
2018-11-20T17:11:59.121Z,22.3
2018-11-20T17:21:58.283Z,22.5
2018-11-20T17:31:57.483Z,22.4
2018-11-20T17:41:56.696Z,22.4
2018-11-20T17:51:55.906Z,22.5
2018-11-20T18:01:55.114Z,22.5
2018-11-20T18:11:54.317Z,22.4
2018-11-20T18:21:53.529Z,22.3
2018-11-20T18:31:52.733Z,22.4
2018-11-20T18:41:51.942Z,22.4
2018-11-20T18:51:51.154Z,22.5
2018-11-20T19:01:50.360Z,22.6
2018-11-20T19:11:49.583Z,22.5
2018-11-20T19:21:48.791Z,22.5
2018-11-20T19:31:52.963Z,22.4
2018-11-20T19:41:47.218Z,22.4
2018-11-20T19:51:46.451Z,22.3
2018-11-20T20:01:45.649Z,22.3
2018-11-20T20:11:44.853Z,22.2
2018-11-20T20:21:44.073Z,22.3
2018-11-20T20:31:43.276Z,22.4
2018-11-20T20:41:42.485Z,22.4
2018-11-20T20:51:41.683Z,22.3
2018-11-20T21:01:40.895Z,22.2
2018-11-20T21:11:40.105Z,22.1
2018-11-20T21:21:39.309Z,22.1
2018-11-20T21:31:38.523Z,22.1
2018-11-20T21:41:37.727Z,22
2018-11-20T21:51:36.934Z,22
2018-11-20T22:01:36.147Z,22
2018-11-20T22:11:35.353Z,21.9
2018-11-20T22:21:34.563Z,21.9
2018-11-20T22:31:33.772Z,21.9
2018-11-20T22:41:32.980Z,21.9
2018-11-20T22:51:32.188Z,21.8
2018-11-20T23:01:31.397Z,21.9
2018-11-20T23:11:30.597Z,21.8
2018-11-20T23:21:29.807Z,21.8
2018-11-20T23:31:29.013Z,21.8
2018-11-20T23:41:28.221Z,21.8
2018-11-20T23:51:27.430Z,21.8
